Time;durP1;ratioP1;P1;durP2;ratioP2;P2;SDS_P1;SDS_P2;PMS_P1;PMS_P2;Temp;Humidity;BMP_temperature;BMP_pressure;BME280_temperature;BME280_humidity;BME280_pressure;Samples;Min_cycle;Max_cycle;Signal;HPM_P1;HPM_P2
2024/03/11 00:00:15;;;;;;;10.20;7.17;;;;;;;;;;5091293;28;20218;-81
2024/03/11 00:02:43;;;;;;;9.30;7.43;;;;;;;;;;5074475;28;20253;-82
2024/03/11 00:05:12;;;;;;;9.33;7.20;;;;;;;;;;5070919;28;20198;-81
2024/03/11 00:07:41;;;;;;;7.97;6.67;;;;;;;;;;5070767;28;20783;-79
2024/03/11 00:10:11;;;;;;;9.80;6.83;;;;;;;;;;5070617;28;20294;-82
2024/03/11 00:12:40;;;;;;;9.20;6.97;;;;;;;;;;5077105;28;20672;-81
2024/03/11 00:15:09;;;;;;;8.73;6.70;;;;;;;;;;5091258;28;20205;-81
2024/03/11 00:17:37;;;;;;;9.00;6.60;;;;;;;;;;5090872;28;20198;-81
2024/03/11 00:20:04;;;;;;;8.07;6.30;;;;;;;;;;5090762;28;20244;-79
2024/03/11 00:22:36;;;;;;;8.30;6.67;;;;;;;;;;5090147;28;20683;-80
2024/03/11 00:25:03;;;;;;;6.87;6.00;;;;;;;;;;5090957;28;20250;-80
2024/03/11 00:27:31;;;;;;;8.67;6.33;;;;;;;;;;5090645;28;20257;-81
2024/03/11 00:29:59;;;;;;;7.27;6.53;;;;;;;;;;5091141;28;20225;-82
2024/03/11 00:32:26;;;;;;;10.77;7.97;;;;;;;;;;5090730;28;20202;-82
2024/03/11 00:34:53;;;;;;;10.93;7.73;;;;;;;;;;5091167;28;20222;-80
2024/03/11 00:37:21;;;;;;;11.83;8.27;;;;;;;;;;5090255;28;20279;-82
2024/03/11 00:39:49;;;;;;;10.33;7.53;;;;;;;;;;5091093;28;20676;-81
2024/03/11 00:42:18;;;;;;;10.57;7.40;;;;;;;;;;5090883;28;20230;-81
2024/03/11 00:44:50;;;;;;;9.07;7.30;;;;;;;;;;5090595;28;20643;-81
2024/03/11 00:47:21;;;;;;;8.10;7.00;;;;;;;;;;5093253;28;20234;-81
2024/03/11 00:49:49;;;;;;;9.63;6.90;;;;;;;;;;5093974;28;20232;-81
2024/03/11 00:52:16;;;;;;;9.63;7.67;;;;;;;;;;5076052;28;20249;-80
2024/03/11 00:54:44;;;;;;;9.47;7.50;;;;;;;;;;5093986;28;20234;-80
2024/03/11 00:57:14;;;;;;;10.87;6.43;;;;;;;;;;5094364;28;20198;-81
2024/03/11 00:59:42;;;;;;;8.20;6.03;;;;;;;;;;5094121;28;20205;-81
2024/03/11 01:02:09;;;;;;;6.80;6.10;;;;;;;;;;5093832;28;20282;-81
2024/03/11 01:04:36;;;;;;;8.80;6.80;;;;;;;;;;5063273;28;20285;-81
2024/03/11 01:07:04;;;;;;;9.43;7.30;;;;;;;;;;5073577;28;20330;-81
2024/03/11 01:09:31;;;;;;;8.53;7.03;;;;;;;;;;5073633;28;20727;-81
2024/03/11 01:11:59;;;;;;;7.60;6.50;;;;;;;;;;5074855;28;20201;-81
2024/03/11 01:14:27;;;;;;;8.63;6.73;;;;;;;;;;5093829;28;20201;-81
2024/03/11 01:16:54;;;;;;;11.07;7.80;;;;;;;;;;5093823;28;20694;-80
2024/03/11 01:19:22;;;;;;;8.27;6.90;;;;;;;;;;5093716;28;20251;-80
2024/03/11 01:21:50;;;;;;;7.60;6.30;;;;;;;;;;5093695;28;20197;-81
2024/03/11 01:24:18;;;;;;;8.93;6.70;;;;;;;;;;5093906;28;20201;-81
2024/03/11 01:26:47;;;;;;;8.40;7.00;;;;;;;;;;5093509;28;20285;-81
2024/03/11 01:29:15;;;;;;;8.80;6.67;;;;;;;;;;5093897;28;20202;-81
2024/03/11 01:31:43;;;;;;;9.37;6.40;;;;;;;;;;5093768;28;20196;-80
2024/03/11 01:34:11;;;;;;;7.83;6.80;;;;;;;;;;5093819;28;20196;-80
2024/03/11 01:36:39;;;;;;;9.50;6.60;;;;;;;;;;5093204;28;20234;-80
2024/03/11 01:39:08;;;;;;;7.07;6.37;;;;;;;;;;5093096;28;20216;-80
2024/03/11 01:41:36;;;;;;;7.87;6.77;;;;;;;;;;5093138;28;20233;-80
2024/03/11 01:44:03;;;;;;;9.10;6.80;;;;;;;;;;5093503;28;20252;-80
2024/03/11 01:46:31;;;;;;;8.63;7.13;;;;;;;;;;5093451;28;20220;-81
2024/03/11 01:49:00;;;;;;;8.10;6.50;;;;;;;;;;5093179;28;20326;-81
2024/03/11 01:51:28;;;;;;;7.60;6.40;;;;;;;;;;5092947;28;20197;-81
2024/03/11 01:53:55;;;;;;;7.67;6.60;;;;;;;;;;5093169;28;20231;-80
2024/03/11 01:56:23;;;;;;;7.60;6.60;;;;;;;;;;5093124;28;20283;-80
2024/03/11 01:58:51;;;;;;;9.27;7.10;;;;;;;;;;5091971;28;20238;-81
2024/03/11 02:01:18;;;;;;;8.43;7.10;;;;;;;;;;5092971;28;20292;-80
2024/03/11 02:03:46;;;;;;;8.37;6.90;;;;;;;;;;5092866;28;20224;-81
2024/03/11 02:06:15;;;;;;;8.93;6.67;;;;;;;;;;5092713;28;20197;-81
2024/03/11 02:08:44;;;;;;;10.63;6.53;;;;;;;;;;5092809;28;20248;-81
2024/03/11 02:11:12;;;;;;;7.73;6.17;;;;;;;;;;5093060;28;20282;-80
2024/03/11 02:13:39;;;;;;;7.57;6.30;;;;;;;;;;5107621;28;20689;-80
2024/03/11 02:16:06;;;;;;;8.13;6.30;;;;;;;;;;5113279;28;20236;-80
2024/03/11 02:18:35;;;;;;;8.20;6.47;;;;;;;;;;5112782;28;20225;-80
2024/03/11 02:21:03;;;;;;;8.83;6.87;;;;;;;;;;5113083;28;20199;-81
2024/03/11 02:23:31;;;;;;;7.87;6.27;;;;;;;;;;5113212;28;20204;-80
2024/03/11 02:25:58;;;;;;;8.10;6.80;;;;;;;;;;5112714;28;20283;-81
2024/03/11 02:28:26;;;;;;;6.83;5.93;;;;;;;;;;5112486;28;20250;-81
2024/03/11 02:30:53;;;;;;;7.67;6.10;;;;;;;;;;5113025;28;20205;-80
2024/03/11 02:33:20;;;;;;;7.57;6.33;;;;;;;;;;5112378;28;20200;-81
2024/03/11 02:35:48;;;;;;;7.67;5.77;;;;;;;;;;5112614;28;20698;-82
2024/03/11 02:38:15;;;;;;;7.10;6.03;;;;;;;;;;5113147;28;20205;-81
2024/03/11 02:40:44;;;;;;;6.80;5.70;;;;;;;;;;5112365;28;20201;-81
2024/03/11 02:43:11;;;;;;;7.00;5.67;;;;;;;;;;5112774;28;20696;-81
2024/03/11 02:45:39;;;;;;;8.00;5.53;;;;;;;;;;5112691;28;20196;-80
2024/03/11 02:48:07;;;;;;;6.30;5.43;;;;;;;;;;5111981;28;20587;-80
2024/03/11 02:50:35;;;;;;;6.53;5.77;;;;;;;;;;5112723;28;20196;-81
2024/03/11 02:53:02;;;;;;;7.47;5.60;;;;;;;;;;5112429;28;20207;-80
2024/03/11 02:55:29;;;;;;;8.23;5.90;;;;;;;;;;5112557;28;20257;-81
2024/03/11 02:57:58;;;;;;;7.30;5.97;;;;;;;;;;5112730;28;20225;-80
2024/03/11 03:00:25;;;;;;;8.57;6.00;;;;;;;;;;5112091;28;20230;-80
2024/03/11 03:02:52;;;;;;;8.63;6.60;;;;;;;;;;5111997;28;20283;-80
2024/03/11 03:05:21;;;;;;;9.07;6.27;;;;;;;;;;5111795;28;20281;-80
2024/03/11 03:07:48;;;;;;;7.90;6.00;;;;;;;;;;5111779;28;20224;-80
2024/03/11 03:10:15;;;;;;;7.10;5.83;;;;;;;;;;5112059;28;20236;-81
2024/03/11 03:12:43;;;;;;;8.27;5.70;;;;;;;;;;5112026;28;20248;-81
2024/03/11 03:15:12;;;;;;;6.50;5.40;;;;;;;;;;5111880;28;20243;-80
2024/03/11 03:17:39;;;;;;;7.70;5.20;;;;;;;;;;5111715;28;20239;-80
2024/03/11 03:20:09;;;;;;;5.93;5.33;;;;;;;;;;5112169;28;20197;-80
2024/03/11 03:22:38;;;;;;;6.43;5.30;;;;;;;;;;5112036;28;20205;-80
2024/03/11 03:25:06;;;;;;;7.50;5.43;;;;;;;;;;5112277;28;20573;-81
2024/03/11 03:27:33;;;;;;;6.67;5.77;;;;;;;;;;5111949;28;20305;-81
2024/03/11 03:30:00;;;;;;;6.53;5.03;;;;;;;;;;5111995;28;20221;-80
2024/03/11 03:32:29;;;;;;;6.10;5.23;;;;;;;;;;5111276;28;20288;-80
2024/03/11 03:34:56;;;;;;;5.90;5.30;;;;;;;;;;5112038;28;20221;-81
2024/03/11 03:37:23;;;;;;;7.43;5.57;;;;;;;;;;5111725;28;20229;-81
2024/03/11 03:39:50;;;;;;;6.97;5.27;;;;;;;;;;5111418;28;20229;-81
2024/03/11 03:42:18;;;;;;;5.90;5.30;;;;;;;;;;5083565;28;20241;-81
2024/03/11 03:44:45;;;;;;;6.27;5.37;;;;;;;;;;5071171;28;20268;-81
2024/03/11 03:47:12;;;;;;;6.00;5.00;;;;;;;;;;5071044;28;20268;-81
2024/03/11 03:49:41;;;;;;;7.23;5.83;;;;;;;;;;5071297;28;20372;-80
2024/03/11 03:52:08;;;;;;;6.87;5.67;;;;;;;;;;5071878;28;20233;-80
2024/03/11 03:54:36;;;;;;;7.57;6.10;;;;;;;;;;5085324;28;20746;-80
2024/03/11 03:57:03;;;;;;;6.77;5.50;;;;;;;;;;5091157;28;20213;-81
2024/03/11 03:59:30;;;;;;;7.23;5.67;;;;;;;;;;5091206;28;20222;-81
2024/03/11 04:01:57;;;;;;;8.73;6.87;;;;;;;;;;5091136;28;20198;-80
2024/03/11 04:04:25;;;;;;;9.30;8.30;;;;;;;;;;5090811;28;20195;-80
2024/03/11 04:06:53;;;;;;;8.07;7.13;;;;;;;;;;5090961;28;20201;-80
2024/03/11 04:09:22;;;;;;;9.33;7.70;;;;;;;;;;5090864;28;20630;-80
2024/03/11 04:11:49;;;;;;;8.10;6.17;;;;;;;;;;5091061;28;20205;-80
2024/03/11 04:14:16;;;;;;;6.43;5.57;;;;;;;;;;5090985;28;20256;-80
2024/03/11 04:16:44;;;;;;;7.73;5.57;;;;;;;;;;5090999;28;20627;-81
2024/03/11 04:19:12;;;;;;;7.07;5.43;;;;;;;;;;5091037;28;20198;-80
2024/03/11 04:21:39;;;;;;;6.93;4.90;;;;;;;;;;5093167;28;20448;-80
2024/03/11 04:24:11;;;;;;;5.57;4.70;;;;;;;;;;5094805;28;20190;-81
2024/03/11 04:26:39;;;;;;;5.30;4.77;;;;;;;;;;5094889;28;20205;-80
2024/03/11 04:29:06;;;;;;;7.07;5.03;;;;;;;;;;5094184;28;20235;-80
2024/03/11 04:31:34;;;;;;;5.50;4.93;;;;;;;;;;5095099;28;20218;-81
2024/03/11 04:34:01;;;;;;;5.97;4.90;;;;;;;;;;5094961;28;20640;-81
2024/03/11 04:36:28;;;;;;;6.53;5.00;;;;;;;;;;5094609;28;20238;-81
2024/03/11 04:38:55;;;;;;;6.60;5.73;;;;;;;;;;5094545;28;20239;-80
2024/03/11 04:41:24;;;;;;;7.43;5.33;;;;;;;;;;5094671;28;20225;-81
2024/03/11 04:43:51;;;;;;;6.13;5.40;;;;;;;;;;5093937;28;20263;-81
2024/03/11 04:46:18;;;;;;;7.53;5.37;;;;;;;;;;5094646;28;20279;-81
2024/03/11 04:48:46;;;;;;;8.60;5.63;;;;;;;;;;5094615;28;20272;-80
2024/03/11 04:51:13;;;;;;;6.87;5.17;;;;;;;;;;5094585;28;20201;-80
2024/03/11 04:53:40;;;;;;;5.80;5.07;;;;;;;;;;5094316;28;20293;-80
2024/03/11 04:56:08;;;;;;;8.40;5.40;;;;;;;;;;5093873;28;20283;-80
2024/03/11 04:58:37;;;;;;;5.70;4.83;;;;;;;;;;5093985;28;20294;-80
2024/03/11 05:01:05;;;;;;;6.63;5.30;;;;;;;;;;5094343;28;20212;-80
2024/03/11 05:03:32;;;;;;;7.47;5.80;;;;;;;;;;5094450;28;20201;-80
2024/03/11 05:06:00;;;;;;;7.40;5.57;;;;;;;;;;5094015;28;20289;-80
2024/03/11 05:08:27;;;;;;;6.70;5.00;;;;;;;;;;5094455;28;20662;-80
2024/03/11 05:10:55;;;;;;;6.67;5.33;;;;;;;;;;5076214;28;20236;-81
2024/03/11 05:13:22;;;;;;;7.27;5.80;;;;;;;;;;5105940;28;20295;-80
2024/03/11 05:15:51;;;;;;;7.30;5.70;;;;;;;;;;5114332;28;20229;-80
2024/03/11 05:18:22;;;;;;;6.70;5.43;;;;;;;;;;5114594;28;20199;-80
2024/03/11 05:20:49;;;;;;;5.93;5.30;;;;;;;;;;5097315;28;20196;-80
2024/03/11 05:23:16;;;;;;;6.13;5.47;;;;;;;;;;5114145;28;20204;-80
2024/03/11 05:25:45;;;;;;;6.37;5.33;;;;;;;;;;5114040;28;20815;-80
2024/03/11 05:28:13;;;;;;;7.20;5.60;;;;;;;;;;5113835;28;20232;-80
2024/03/11 05:30:40;;;;;;;7.93;6.00;;;;;;;;;;5114129;28;20640;-81
2024/03/11 05:33:10;;;;;;;6.67;5.50;;;;;;;;;;5112880;28;20192;-81
2024/03/11 05:35:37;;;;;;;6.73;5.80;;;;;;;;;;5114395;28;20196;-81
2024/03/11 05:38:04;;;;;;;11.53;5.70;;;;;;;;;;5113857;28;20228;-81
2024/03/11 05:40:32;;;;;;;6.43;5.63;;;;;;;;;;5113938;28;20283;-81
2024/03/11 05:43:00;;;;;;;7.47;5.77;;;;;;;;;;5113300;28;20625;-81
2024/03/11 05:45:27;;;;;;;6.97;5.67;;;;;;;;;;5114058;28;20659;-81
2024/03/11 05:47:54;;;;;;;6.97;6.13;;;;;;;;;;5113684;28;20314;-80
2024/03/11 05:50:24;;;;;;;8.70;6.13;;;;;;;;;;5113524;28;20701;-81
2024/03/11 05:52:51;;;;;;;7.53;6.63;;;;;;;;;;5113618;28;20240;-81
2024/03/11 05:55:21;;;;;;;8.23;6.97;;;;;;;;;;5113142;28;20233;-81
2024/03/11 05:57:49;;;;;;;8.97;7.03;;;;;;;;;;5113052;28;20239;-80
2024/03/11 06:00:17;;;;;;;9.47;6.90;;;;;;;;;;5114207;28;20276;-81
2024/03/11 06:02:44;;;;;;;8.77;7.67;;;;;;;;;;5113031;28;20227;-81
2024/03/11 06:05:12;;;;;;;10.60;8.37;;;;;;;;;;5112796;28;20195;-81
2024/03/11 06:07:42;;;;;;;13.30;11.00;;;;;;;;;;5112546;28;20261;-81
2024/03/11 06:10:09;;;;;;;18.43;12.53;;;;;;;;;;5054954;28;20202;-81
2024/03/11 06:12:37;;;;;;;16.57;11.73;;;;;;;;;;5078244;28;20224;-80
2024/03/11 06:15:04;;;;;;;15.43;11.20;;;;;;;;;;5074750;28;20231;-80
2024/03/11 06:17:32;;;;;;;13.60;11.37;;;;;;;;;;5092683;28;20233;-80
2024/03/11 06:20:01;;;;;;;12.37;9.90;;;;;;;;;;5092181;28;20254;-81
2024/03/11 06:22:29;;;;;;;16.00;10.87;;;;;;;;;;5092324;28;20193;-81
2024/03/11 06:24:58;;;;;;;14.23;10.70;;;;;;;;;;5092093;28;20245;-80
2024/03/11 06:27:26;;;;;;;15.33;13.00;;;;;;;;;;5092613;28;20201;-80
2024/03/11 06:29:53;;;;;;;17.57;13.93;;;;;;;;;;5092406;28;20191;-80
2024/03/11 06:32:21;;;;;;;15.57;11.17;;;;;;;;;;5092236;28;20199;-79
2024/03/11 06:34:48;;;;;;;14.47;10.60;;;;;;;;;;5090545;28;20772;-80
2024/03/11 06:37:16;;;;;;;13.73;9.87;;;;;;;;;;5090163;28;20244;-79
2024/03/11 06:39:44;;;;;;;13.07;10.13;;;;;;;;;;5084243;28;20256;-80
2024/03/11 06:42:12;;;;;;;13.90;10.57;;;;;;;;;;5088253;28;20291;-81
2024/03/11 06:44:39;;;;;;;12.70;10.57;;;;;;;;;;5082991;28;20656;-78
2024/03/11 06:47:08;;;;;;;13.73;10.90;;;;;;;;;;5090562;28;20239;-81
2024/03/11 06:49:36;;;;;;;12.47;10.93;;;;;;;;;;5091681;28;20238;-81
2024/03/11 06:52:03;;;;;;;35.03;19.47;;;;;;;;;;5091625;28;20210;-80
2024/03/11 06:54:31;;;;;;;33.30;19.87;;;;;;;;;;5091075;28;20315;-80
2024/03/11 06:57:00;;;;;;;23.20;15.80;;;;;;;;;;5091940;28;20236;-80
2024/03/11 06:59:29;;;;;;;26.00;15.77;;;;;;;;;;4731417;28;10000047;-80
2024/03/11 07:01:56;;;;;;;19.17;13.10;;;;;;;;;;5068321;28;20684;-80
2024/03/11 07:04:24;;;;;;;15.87;11.67;;;;;;;;;;5068308;28;20219;-79
2024/03/11 07:06:51;;;;;;;14.53;10.50;;;;;;;;;;5071679;28;20287;-78
2024/03/11 07:09:18;;;;;;;14.47;10.33;;;;;;;;;;5071401;28;20259;-81
2024/03/11 07:11:46;;;;;;;15.10;10.47;;;;;;;;;;5071517;28;20670;-80
2024/03/11 07:14:13;;;;;;;15.80;10.70;;;;;;;;;;5110960;28;20205;-79
2024/03/11 07:16:43;;;;;;;16.90;12.50;;;;;;;;;;5112192;28;20233;-81
2024/03/11 07:19:11;;;;;;;18.97;15.57;;;;;;;;;;5112401;28;20231;-81
2024/03/11 07:21:39;;;;;;;21.37;15.20;;;;;;;;;;5112085;28;20242;-78
2024/03/11 07:24:07;;;;;;;19.10;15.33;;;;;;;;;;5111832;28;20225;-78
2024/03/11 07:26:34;;;;;;;18.40;15.33;;;;;;;;;;5111843;28;20194;-81
2024/03/11 07:29:02;;;;;;;16.47;14.23;;;;;;;;;;5107543;28;20309;-80
2024/03/11 07:31:29;;;;;;;11.13;9.10;;;;;;;;;;5089628;28;20199;-80
2024/03/11 07:33:58;;;;;;;8.97;6.20;;;;;;;;;;5089600;28;20249;-80
2024/03/11 07:36:26;;;;;;;7.60;5.67;;;;;;;;;;5091103;28;20190;-81
2024/03/11 07:38:54;;;;;;;7.13;5.03;;;;;;;;;;5090929;28;20199;-80
2024/03/11 07:41:24;;;;;;;5.97;4.80;;;;;;;;;;5090747;28;20300;-79
2024/03/11 07:43:52;;;;;;;6.33;5.00;;;;;;;;;;5078728;28;20735;-78
2024/03/11 07:46:19;;;;;;;6.33;4.97;;;;;;;;;;5100925;28;20201;-79
2024/03/11 07:48:46;;;;;;;8.17;5.57;;;;;;;;;;5103186;28;20229;-78
2024/03/11 07:51:15;;;;;;;6.37;5.33;;;;;;;;;;5105868;28;20240;-78
2024/03/11 07:53:44;;;;;;;5.90;4.70;;;;;;;;;;5093894;28;20229;-78
2024/03/11 07:56:12;;;;;;;5.93;5.28;;;;;;;;;;5113430;28;20246;-78
2024/03/11 07:58:39;;;;;;;6.18;5.20;;;;;;;;;;5116021;28;20692;-79
2024/03/11 08:01:06;;;;;;;8.52;6.78;;;;;;;;;;5115820;28;20243;-78
2024/03/11 08:03:34;;;;;;;10.57;7.38;;;;;;;;;;5116017;28;20284;-79
2024/03/11 08:06:01;;;;;;;7.38;5.95;;;;;;;;;;5116161;28;20197;-79
2024/03/11 08:08:29;;;;;;;5.40;4.65;;;;;;;;;;5115470;28;20302;-79
2024/03/11 08:10:57;;;;;;;5.05;3.30;;;;;;;;;;5115658;28;20613;-78
2024/03/11 08:13:24;;;;;;;4.70;2.75;;;;;;;;;;5102396;28;20237;-79
2024/03/11 08:15:51;;;;;;;3.75;3.03;;;;;;;;;;5094996;28;20229;-80
2024/03/11 08:18:19;;;;;;;3.83;2.53;;;;;;;;;;5095292;28;20237;-79
2024/03/11 08:20:47;;;;;;;3.03;2.58;;;;;;;;;;5094944;28;20241;-80
2024/03/11 08:23:14;;;;;;;3.80;2.45;;;;;;;;;;5094837;28;20673;-79
2024/03/11 08:25:47;;;;;;;3.05;2.70;;;;;;;;;;5094773;28;20194;-79
2024/03/11 08:28:16;;;;;;;2.85;2.55;;;;;;;;;;5095136;28;20194;-79
2024/03/11 08:30:43;;;;;;;4.85;3.15;;;;;;;;;;5094917;28;20201;-79
2024/03/11 08:33:12;;;;;;;3.78;2.90;;;;;;;;;;5094644;28;20234;-78
2024/03/11 08:35:40;;;;;;;3.55;2.72;;;;;;;;;;5094732;28;20624;-79
2024/03/11 08:38:08;;;;;;;3.55;2.75;;;;;;;;;;5095332;28;20190;-79
2024/03/11 08:40:38;;;;;;;3.88;2.40;;;;;;;;;;5094441;28;20198;-79
2024/03/11 08:43:06;;;;;;;3.50;2.35;;;;;;;;;;5094861;28;20233;-80
2024/03/11 08:45:34;;;;;;;2.90;2.45;;;;;;;;;;5094566;28;20652;-79
2024/03/11 08:48:01;;;;;;;2.38;2.05;;;;;;;;;;5094659;28;20198;-79
2024/03/11 08:50:28;;;;;;;4.03;2.25;;;;;;;;;;5094408;28;20626;-79
2024/03/11 08:52:56;;;;;;;2.72;2.00;;;;;;;;;;5094628;28;20597;-80
2024/03/11 08:55:24;;;;;;;3.55;2.08;;;;;;;;;;5094182;28;20740;-80
2024/03/11 08:57:53;;;;;;;3.80;2.15;;;;;;;;;;5094458;28;20710;-79
2024/03/11 09:00:27;;;;;;;2.50;1.80;;;;;;;;;;5094443;28;20252;-80
2024/03/11 09:02:55;;;;;;;3.25;1.83;;;;;;;;;;5094046;28;20617;-79
2024/03/11 09:05:23;;;;;;;2.90;1.70;;;;;;;;;;5093963;28;20590;-79
2024/03/11 09:07:51;;;;;;;2.95;1.70;;;;;;;;;;5094174;28;20226;-80
2024/03/11 09:10:18;;;;;;;3.58;1.77;;;;;;;;;;5093979;28;20229;-79
2024/03/11 09:12:46;;;;;;;2.05;1.52;;;;;;;;;;5101611;28;20281;-80
2024/03/11 09:15:15;;;;;;;2.95;1.83;;;;;;;;;;5114315;28;20229;-79
2024/03/11 09:17:44;;;;;;;2.55;1.77;;;;;;;;;;5080635;28;20276;-79
2024/03/11 09:20:15;;;;;;;4.20;1.80;;;;;;;;;;5074011;28;20199;-80
2024/03/11 09:22:45;;;;;;;4.75;1.80;;;;;;;;;;5073638;28;20203;-79
2024/03/11 09:25:15;;;;;;;3.05;1.73;;;;;;;;;;5073737;28;20191;-79
2024/03/11 09:27:42;;;;;;;4.65;1.90;;;;;;;;;;5073537;28;20210;-80
2024/03/11 09:30:11;;;;;;;3.25;1.55;;;;;;;;;;5073596;28;20313;-80
2024/03/11 09:32:39;;;;;;;4.88;1.70;;;;;;;;;;5073758;28;20206;-79
2024/03/11 09:35:09;;;;;;;3.42;1.63;;;;;;;;;;5073148;28;20253;-80
2024/03/11 09:37:37;;;;;;;4.93;1.67;;;;;;;;;;5073497;28;20264;-79
2024/03/11 09:40:08;;;;;;;3.22;1.48;;;;;;;;;;5073186;28;20191;-80
2024/03/11 09:42:37;;;;;;;3.38;1.38;;;;;;;;;;5073324;28;20203;-80
2024/03/11 09:45:07;;;;;;;3.35;1.20;;;;;;;;;;5073329;28;20577;-79
2024/03/11 09:47:35;;;;;;;4.63;1.50;;;;;;;;;;5073338;28;20202;-80
2024/03/11 09:50:03;;;;;;;2.63;1.40;;;;;;;;;;5072786;28;20236;-80
2024/03/11 09:52:34;;;;;;;2.05;1.08;;;;;;;;;;5073129;28;20740;-80
2024/03/11 09:55:02;;;;;;;3.33;1.42;;;;;;;;;;5072865;28;20670;-80
2024/03/11 09:57:29;;;;;;;3.55;1.40;;;;;;;;;;5072956;28;20206;-80
2024/03/11 09:59:57;;;;;;;3.20;1.35;;;;;;;;;;5072952;28;20695;-80
2024/03/11 10:02:26;;;;;;;4.55;1.27;;;;;;;;;;5072692;28;20624;-79
2024/03/11 10:04:58;;;;;;;3.00;1.40;;;;;;;;;;5073039;28;20202;-79
2024/03/11 10:07:25;;;;;;;2.60;1.40;;;;;;;;;;5072726;28;20199;-80
2024/03/11 10:09:53;;;;;;;2.42;1.30;;;;;;;;;;5072611;28;20317;-80
2024/03/11 10:12:21;;;;;;;3.72;1.50;;;;;;;;;;5076905;28;20627;-80
2024/03/11 10:14:52;;;;;;;3.63;1.42;;;;;;;;;;5093062;28;20214;-81
2024/03/11 10:17:21;;;;;;;5.85;1.52;;;;;;;;;;5092584;28;20229;-80
2024/03/11 10:19:51;;;;;;;4.65;1.33;;;;;;;;;;5092465;28;20278;-80
2024/03/11 10:22:24;;;;;;;5.60;1.40;;;;;;;;;;5093159;28;20536;-80
2024/03/11 10:24:54;;;;;;;2.95;1.30;;;;;;;;;;5092941;28;20218;-80
2024/03/11 10:27:23;;;;;;;3.60;1.10;;;;;;;;;;5092655;28;20199;-80
2024/03/11 10:29:50;;;;;;;5.50;1.33;;;;;;;;;;5092540;28;20604;-80
2024/03/11 10:32:36;;;;;;;3.60;1.33;;;;;;;;;;5092443;28;20198;-80
2024/03/11 10:35:04;;;;;;;3.40;0.95;;;;;;;;;;5092497;28;20198;-79
2024/03/11 10:37:31;;;;;;;3.80;1.42;;;;;;;;;;5092572;28;20269;-80
2024/03/11 10:40:00;;;;;;;4.07;1.23;;;;;;;;;;5092678;28;20677;-80
2024/03/11 10:42:32;;;;;;;4.80;1.23;;;;;;;;;;5092579;28;20209;-81
2024/03/11 10:45:04;;;;;;;2.95;1.00;;;;;;;;;;5092600;28;20635;-80
2024/03/11 10:47:32;;;;;;;4.43;1.30;;;;;;;;;;5091570;28;20206;-80
2024/03/11 10:50:01;;;;;;;4.05;1.30;;;;;;;;;;5092321;28;20261;-80
2024/03/11 10:52:30;;;;;;;3.50;1.17;;;;;;;;;;5092149;28;20289;-80
2024/03/11 10:55:02;;;;;;;4.72;1.10;;;;;;;;;;5092562;28;20230;-81
2024/03/11 10:57:35;;;;;;;6.35;1.20;;;;;;;;;;5092764;28;20831;-80
2024/03/11 11:00:10;;;;;;;4.53;1.20;;;;;;;;;;5092090;28;20221;-81
2024/03/11 11:02:41;;;;;;;4.78;1.38;;;;;;;;;;5091672;28;20742;-80
2024/03/11 11:05:09;;;;;;;4.03;1.38;;;;;;;;;;5092409;28;20198;-80
2024/03/11 11:07:36;;;;;;;4.38;1.30;;;;;;;;;;5092269;28;20276;-80
2024/03/11 11:10:04;;;;;;;3.85;1.50;;;;;;;;;;5091828;28;20322;-80
2024/03/11 11:12:33;;;;;;;4.05;1.35;;;;;;;;;;5097644;28;20655;-80
2024/03/11 11:15:01;;;;;;;6.90;1.70;;;;;;;;;;5112090;28;20285;-80
2024/03/11 11:17:30;;;;;;;6.60;1.40;;;;;;;;;;5112536;28;20558;-80
2024/03/11 11:19:58;;;;;;;5.78;1.80;;;;;;;;;;5112131;28;20193;-80
2024/03/11 11:22:27;;;;;;;4.43;1.60;;;;;;;;;;5112297;28;20289;-80
2024/03/11 11:24:54;;;;;;;3.67;1.35;;;;;;;;;;5111986;28;20201;-80
2024/03/11 11:27:27;;;;;;;5.65;1.73;;;;;;;;;;5112015;28;20237;-80
2024/03/11 11:30:13;;;;;;;5.35;1.92;;;;;;;;;;5111348;28;20253;-80
2024/03/11 11:32:42;;;;;;;5.32;1.50;;;;;;;;;;5111951;28;20265;-80
2024/03/11 11:35:13;;;;;;;5.93;1.67;;;;;;;;;;5111807;28;20285;-80
2024/03/11 11:37:40;;;;;;;6.03;1.65;;;;;;;;;;5112026;28;20224;-80
2024/03/11 11:40:26;;;;;;;4.95;1.40;;;;;;;;;;5112037;28;20199;-80
2024/03/11 11:42:55;;;;;;;2.88;1.10;;;;;;;;;;5111564;28;20758;-78
2024/03/11 11:45:38;;;;;;;5.10;1.38;;;;;;;;;;5111399;28;20193;-79
2024/03/11 11:48:16;;;;;;;6.13;1.30;;;;;;;;;;5110917;28;20201;-80
2024/03/11 11:50:45;;;;;;;3.08;1.00;;;;;;;;;;5111436;28;20703;-80
2024/03/11 11:53:14;;;;;;;6.65;1.60;;;;;;;;;;5111708;28;20202;-79
2024/03/11 11:55:50;;;;;;;4.45;1.20;;;;;;;;;;5111589;28;20644;-79
2024/03/11 11:58:17;;;;;;;4.63;1.38;;;;;;;;;;5111669;28;20198;-79
2024/03/11 12:00:44;;;;;;;4.72;1.27;;;;;;;;;;5111136;28;20225;-79
2024/03/11 12:03:30;;;;;;;3.97;1.45;;;;;;;;;;5111792;28;20221;-80
2024/03/11 12:06:17;;;;;;;4.95;1.40;;;;;;;;;;5111758;28;20197;-80
2024/03/11 12:08:45;;;;;;;6.80;1.17;;;;;;;;;;5111456;28;20197;-79
2024/03/11 12:11:14;;;;;;;4.30;1.05;;;;;;;;;;5111292;28;20278;-79
2024/03/11 12:13:42;;;;;;;5.90;1.38;;;;;;;;;;5111363;28;20197;-80
2024/03/11 12:16:10;;;;;;;5.38;1.50;;;;;;;;;;5111740;28;20201;-79
2024/03/11 12:18:42;;;;;;;3.38;0.85;;;;;;;;;;5111529;28;20197;-79
2024/03/11 12:21:11;;;;;;;2.78;0.80;;;;;;;;;;5111570;28;20259;-79
2024/03/11 12:23:38;;;;;;;3.00;1.05;;;;;;;;;;5112172;28;20198;-79
2024/03/11 12:26:09;;;;;;;2.13;0.70;;;;;;;;;;5111456;28;20581;-79
2024/03/11 12:28:37;;;;;;;2.97;0.90;;;;;;;;;;5111030;28;20711;-80
2024/03/11 12:31:06;;;;;;;1.45;0.63;;;;;;;;;;5111659;28;20229;-79
2024/03/11 12:33:34;;;;;;;3.08;1.27;;;;;;;;;;5110973;28;20278;-79
2024/03/11 12:36:05;;;;;;;5.53;1.00;;;;;;;;;;5111587;28;20233;-79
2024/03/11 12:38:32;;;;;;;2.38;1.23;;;;;;;;;;5111261;28;20205;-80
2024/03/11 12:41:00;;;;;;;1.55;0.80;;;;;;;;;;5111262;28;20699;-79
2024/03/11 12:43:31;;;;;;;4.55;0.93;;;;;;;;;;5114444;28;20201;-79
2024/03/11 12:46:00;;;;;;;3.35;0.88;;;;;;;;;;5114894;28;20246;-79
2024/03/11 12:48:28;;;;;;;3.30;1.15;;;;;;;;;;5114908;28;20198;-80
2024/03/11 12:50:56;;;;;;;5.35;1.05;;;;;;;;;;5115064;28;20764;-81
2024/03/11 12:53:25;;;;;;;4.85;1.08;;;;;;;;;;5114655;28;20275;-81
2024/03/11 12:56:03;;;;;;;6.22;1.02;;;;;;;;;;5114603;28;20273;-81
2024/03/11 12:58:33;;;;;;;2.00;0.90;;;;;;;;;;5114941;28;20193;-81
2024/03/11 13:01:03;;;;;;;3.90;1.02;;;;;;;;;;5115174;28;20198;-81
2024/03/11 13:03:31;;;;;;;4.72;0.95;;;;;;;;;;5115003;28;20240;-81
2024/03/11 13:06:00;;;;;;;3.83;0.95;;;;;;;;;;5115060;28;20276;-81
2024/03/11 13:08:29;;;;;;;4.18;1.38;;;;;;;;;;5114675;28;20306;-81
2024/03/11 13:11:04;;;;;;;3.03;1.10;;;;;;;;;;5114224;28;20227;-82
2024/03/11 13:13:32;;;;;;;5.65;1.13;;;;;;;;;;5114678;28;20229;-80
2024/03/11 13:15:59;;;;;;;3.42;1.08;;;;;;;;;;5115031;28;20568;-80
2024/03/11 13:18:29;;;;;;;4.50;1.10;;;;;;;;;;5114531;28;20190;-80
2024/03/11 13:20:57;;;;;;;3.08;0.85;;;;;;;;;;5114449;28;20194;-80
2024/03/11 13:23:25;;;;;;;4.45;1.10;;;;;;;;;;5114356;28;20201;-80
2024/03/11 13:25:54;;;;;;;3.33;0.73;;;;;;;;;;5114422;28;20204;-81
2024/03/11 13:28:22;;;;;;;3.50;0.70;;;;;;;;;;5114143;28;20239;-80
2024/03/11 13:30:50;;;;;;;2.97;0.68;;;;;;;;;;5114071;28;20578;-81
2024/03/11 13:33:17;;;;;;;3.55;1.00;;;;;;;;;;5114731;28;20276;-81
2024/03/11 13:35:44;;;;;;;3.30;0.75;;;;;;;;;;5114389;28;20623;-80
2024/03/11 13:38:12;;;;;;;2.55;0.77;;;;;;;;;;5114376;28;20229;-80
2024/03/11 13:40:39;;;;;;;1.75;0.60;;;;;;;;;;5114051;28;20198;-81
2024/03/11 13:43:11;;;;;;;2.92;0.85;;;;;;;;;;5114065;28;20717;-81
2024/03/11 13:45:40;;;;;;;1.50;0.55;;;;;;;;;;5114046;28;20609;-81
2024/03/11 13:48:08;;;;;;;2.95;0.80;;;;;;;;;;5114123;28;20202;-81
2024/03/11 13:50:38;;;;;;;2.38;0.82;;;;;;;;;;5113728;28;20703;-81
2024/03/11 13:53:07;;;;;;;1.92;0.90;;;;;;;;;;5113125;28;20239;-80
2024/03/11 13:55:34;;;;;;;4.15;1.20;;;;;;;;;;5113120;28;20234;-79
2024/03/11 13:58:02;;;;;;;3.40;1.25;;;;;;;;;;5113827;28;20258;-80
2024/03/11 14:00:32;;;;;;;2.97;1.00;;;;;;;;;;5113853;28;20575;-81
2024/03/11 14:03:01;;;;;;;4.53;1.00;;;;;;;;;;5113902;28;20198;-80
2024/03/11 14:05:29;;;;;;;3.90;1.08;;;;;;;;;;5113390;28;20190;-79
2024/03/11 14:07:57;;;;;;;5.75;1.27;;;;;;;;;;5113528;28;20189;-80
2024/03/11 14:10:25;;;;;;;4.32;1.17;;;;;;;;;;5112993;28;20355;-80
2024/03/11 14:12:52;;;;;;;5.03;1.00;;;;;;;;;;5113154;28;20247;-80
2024/03/11 14:15:23;;;;;;;2.28;0.80;;;;;;;;;;5113515;28;20241;-80
2024/03/11 14:17:53;;;;;;;2.90;0.90;;;;;;;;;;5113621;28;20193;-80
2024/03/11 14:20:21;;;;;;;3.08;0.95;;;;;;;;;;5113513;28;20288;-80
2024/03/11 14:22:48;;;;;;;2.85;0.90;;;;;;;;;;5112905;28;20561;-80
2024/03/11 14:25:16;;;;;;;2.90;1.00;;;;;;;;;;5113268;28;20228;-81
2024/03/11 14:27:46;;;;;;;3.08;1.00;;;;;;;;;;5113267;28;20198;-80
2024/03/11 14:30:16;;;;;;;3.40;0.82;;;;;;;;;;5095051;28;20620;-81
2024/03/11 14:32:44;;;;;;;4.75;1.00;;;;;;;;;;5112853;28;20652;-80
2024/03/11 14:35:14;;;;;;;4.28;1.00;;;;;;;;;;5112850;28;20201;-80
2024/03/11 14:37:42;;;;;;;3.10;0.70;;;;;;;;;;5112975;28;20603;-81
2024/03/11 14:40:11;;;;;;;3.23;0.80;;;;;;;;;;5112760;28;20193;-80
2024/03/11 14:42:39;;;;;;;2.35;0.70;;;;;;;;;;5112856;28;20201;-80
2024/03/11 14:45:07;;;;;;;3.20;0.70;;;;;;;;;;5112873;28;20285;-80
2024/03/11 14:47:36;;;;;;;3.80;1.10;;;;;;;;;;5112668;28;20280;-80